| time (UTC) | temp F | wind direction | speed MPH | gust MPH | rain 1hr in | rain 24hr in | rain mn in | humidity % | barometer mb |
| 20260508003030 | 52 | 176 | 4.0 | 8.0 | 0.00 | 0.05 | 0.00 | 56 | 1010.6 |
| 20260508001538 | 52 | 211 | 4.0 | 7.0 | 0.00 | 0.05 | 0.00 | 56 | 1010.5 |
| 20260508000032 | 52 | 198 | 2.0 | 3.0 | 0.00 | 0.05 | 0.00 | 56 | 1010.7 |
| 20260507234534 | 53 | 0 | 0.0 | 3.0 | 0.00 | 0.05 | 0.00 | 56 | 1010.8 |
| 20260507233034 | 53 | 200 | 1.0 | 4.0 | 0.00 | 0.05 | 0.00 | 55 | 1010.7 |
| 20260507231534 | 53 | 202 | 3.0 | 6.0 | 0.00 | 0.05 | 0.00 | 55 | 1010.8 |
| 20260507230030 | 53 | 191 | 1.0 | 4.0 | 0.00 | 0.05 | 0.00 | 55 | 1010.9 |
| 20260507224532 | 54 | 0 | 0.0 | 0.0 | 0.00 | 0.05 | 0.00 | 55 | 1011.0 |
| 20260507223030 | 54 | 0 | 0.0 | 0.0 | 0.00 | 0.05 | 0.00 | 54 | 1011.0 |
| 20260507221536 | 54 | 0 | 0.0 | 0.0 | 0.00 | 0.05 | 0.00 | 55 | 1011.0 |
| 20260507220031 | 54 | 0 | 0.0 | 0.0 | 0.00 | 0.05 | 0.00 | 54 | 1011.0 |
| 20260507214535 | 55 | 0 | 0.0 | 0.0 | 0.00 | 0.05 | 0.05 | 54 | 1011.0 |
| 20260507213032 | 56 | 0 | 0.0 | 0.0 | 0.00 | 0.05 | 0.05 | 54 | 1010.8 |
| 20260507211533 | 56 | 0 | 0.0 | 0.0 | 0.00 | 0.05 | 0.05 | 54 | 1010.7 |
| 20260507210038 | 56 | 0 | 0.0 | 0.0 | 0.00 | 0.05 | 0.05 | 53 | 1010.7 |
| 20260507204531 | 57 | 0 | 0.0 | 0.0 | 0.00 | 0.05 | 0.05 | 53 | 1010.6 |
| 20260507203042 | 57 | 0 | 0.0 | 0.0 | 0.00 | 0.05 | 0.05 | 53 | 1010.2 |
| 20260507201533 | 58 | 0 | 0.0 | 0.0 | 0.00 | 0.05 | 0.05 | 52 | 1010.2 |
| 20260507200035 | 59 | 0 | 0.0 | 0.0 | 0.00 | 0.05 | 0.05 | 52 | 1010.0 |
| 20260507194534 | 60 | 0 | 0.0 | 0.0 | 0.00 | 0.05 | 0.05 | 51 | 1009.9 |
| 20260507193037 | 60 | 0 | 0.0 | 0.0 | 0.00 | 0.05 | 0.05 | 50 | 1009.8 |
| 20260507191538 | 61 | 0 | 0.0 | 0.0 | 0.00 | 0.05 | 0.05 | 47 | 1009.7 |
| 20260507190034 | 61 | 0 | 0.0 | 2.0 | 0.00 | 0.05 | 0.05 | 47 | 1009.7 |
| 20260507184530 | 60 | 0 | 0.0 | 3.0 | 0.00 | 0.05 | 0.05 | 49 | 1009.7 |
| 20260507183035 | 60 | 0 | 0.0 | 3.0 | 0.00 | 0.05 | 0.05 | 51 | 1009.7 |
| 20260507181534 | 60 | 256 | 5.0 | 10.0 | 0.00 | 0.05 | 0.05 | 51 | 1009.5 |
| 20260507180037 | 61 | 249 | 0.0 | 9.0 | 0.00 | 0.04 | 0.04 | 51 | 1009.5 |
| 20260507174543 | 61 | 0 | 0.0 | 0.0 | 0.02 | 0.04 | 0.04 | 52 | 1009.6 |
| 20260507173052 | 60 | 0 | 0.0 | 3.0 | 0.04 | 0.04 | 0.04 | 50 | 1009.6 |
| 20260507171538 | 60 | 0 | 1.0 | 4.0 | 0.04 | 0.04 | 0.04 | 51 | 1009.7 |
| 20260507170039 | 61 | 221 | 5.0 | 15.0 | 0.04 | 0.04 | 0.04 | 51 | 1010.0 |
| 20260507164535 | 63 | 28 | 5.0 | 12.0 | 0.01 | 0.01 | 0.01 | 46 | 1010.1 |
| 20260507163033 | 66 | 27 | 6.0 | 14.0 | 0.00 | 0.00 | 0.00 | 41 | 1010.2 |
| 20260507161540 | 67 | 25 | 11.0 | 20.0 | 0.00 | 0.00 | 0.00 | 38 | 1009.7 |
| 20260507160038 | 68 | 10 | 14.0 | 27.0 | 0.00 | 0.00 | 0.00 | 34 | 1009.3 |
| 20260507154532 | 72 | 0 | 0.0 | 3.0 | 0.00 | 0.02 | 0.00 | 35 | 1008.7 |
| 20260507153033 | 73 | 197 | 2.0 | 10.0 | 0.00 | 0.02 | 0.00 | 33 | 1008.6 |
| 20260507151534 | 73 | 195 | 3.0 | 13.0 | 0.00 | 0.02 | 0.00 | 33 | 1008.4 |
| 20260507150039 | 73 | 175 | 6.0 | 12.0 | 0.00 | 0.02 | 0.00 | 35 | 1008.5 |
| 20260507144535 | 72 | 166 | 6.0 | 13.0 | 0.00 | 0.06 | 0.00 | 38 | 1008.7 |
| 20260507143043 | 71 | 164 | 6.0 | 12.0 | 0.00 | 0.06 | 0.00 | 42 | 1008.9 |
| 20260507141546 | 71 | 211 | 5.0 | 12.0 | 0.00 | 0.06 | 0.00 | 42 | 1009.0 |
| 20260507140032 | 68 | 189 | 4.0 | 11.0 | 0.00 | 0.06 | 0.00 | 44 | 1009.0 |
| 20260507134534 | 68 | 188 | 1.0 | 11.0 | 0.00 | 0.06 | 0.00 | 46 | 1009.3 |
| 20260507133105 | 70 | 180 | 6.0 | 13.0 | 0.00 | 0.06 | 0.00 | 43 | 1009.4 |
| 20260507131538 | 72 | 168 | 5.0 | 10.0 | 0.00 | 0.06 | 0.00 | 39 | 1009.4 |
| 20260507130036 | 73 | 181 | 2.0 | 7.0 | 0.00 | 0.06 | 0.00 | 38 | 1009.5 |
| 20260507124534 | 72 | 221 | 3.0 | 8.0 | 0.00 | 0.06 | 0.00 | 38 | 1009.7 |
| 20260507123039 | 71 | 70 | 1.0 | 4.0 | 0.00 | 0.06 | 0.00 | 37 | 1010.0 |
| 20260507121537 | 70 | 68 | 1.0 | 7.0 | 0.00 | 0.06 | 0.00 | 40 | 1010.2 |
| 20260507120036 | 69 | 85 | 3.0 | 9.0 | 0.00 | 0.06 | 0.00 | 39 | 1010.6 |
| 20260507114539 | 69 | 90 | 1.0 | 7.0 | 0.00 | 0.06 | 0.00 | 41 | 1010.8 |
| 20260507113036 | 69 | 188 | 0.0 | 7.0 | 0.00 | 0.06 | 0.00 | 42 | 1010.8 |
| 20260507111531 | 68 | 234 | 2.0 | 4.0 | 0.00 | 0.06 | 0.00 | 41 | 1010.9 |
| 20260507110040 | 67 | 194 | 5.0 | 11.0 | 0.00 | 0.06 | 0.00 | 40 | 1011.1 |
| 20260507104534 | 65 | 0 | 2.0 | 6.0 | 0.00 | 0.06 | 0.00 | 41 | 1011.4 |
| 20260507103038 | 64 | 181 | 0.0 | 7.0 | 0.00 | 0.06 | 0.00 | 41 | 1011.5 |
| 20260507101536 | 63 | 247 | 2.0 | 7.0 | 0.00 | 0.06 | 0.00 | 41 | 1011.7 |
| 20260507100032 | 61 | 304 | 4.0 | 9.0 | 0.00 | 0.06 | 0.00 | 45 | 1011.9 |
| 20260507094542 | 60 | 0 | 1.0 | 7.0 | 0.00 | 0.06 | 0.00 | 47 | 1012.1 |
| 20260507093034 | 58 | 215 | 2.0 | 6.0 | 0.00 | 0.06 | 0.00 | 51 | 1012.2 |
| 20260507091535 | 56 | 205 | 2.0 | 4.0 | 0.00 | 0.06 | 0.00 | 57 | 1012.4 |
| 20260507090035 | 53 | 205 | 1.0 | 6.0 | 0.00 | 0.06 | 0.00 | 63 | 1012.6 |
| 20260507084531 | 51 | 217 | 2.0 | 5.0 | 0.00 | 0.06 | 0.00 | 66 | 1012.7 |
| 20260507083032 | 50 | 213 | 1.0 | 4.0 | 0.00 | 0.06 | 0.00 | 66 | 1012.9 |
| 20260507081539 | 49 | 214 | 1.0 | 5.0 | 0.00 | 0.06 | 0.00 | 67 | 1013.1 |
| 20260507080031 | 48 | 182 | 2.0 | 4.0 | 0.00 | 0.06 | 0.00 | 67 | 1013.2 |
| 20260507074534 | 48 | 179 | 1.0 | 3.0 | 0.00 | 0.06 | 0.00 | 67 | 1013.4 |
| 20260507073031 | 47 | 0 | 1.0 | 3.0 | 0.00 | 0.06 | 0.00 | 67 | 1013.3 |
| 20260507071530 | 46 | 180 | 2.0 | 4.0 | 0.00 | 0.06 | 0.00 | 67 | 1013.3 |
| 20260507070044 | 46 | 182 | 0.0 | 3.0 | 0.00 | 0.06 | 0.00 | 67 | 1013.5 |
| 20260507064541 | 46 | 177 | 1.0 | 6.0 | 0.00 | 0.06 | 0.00 | 67 | 1013.5 |
| 20260507063035 | 46 | 181 | 4.0 | 8.0 | 0.00 | 0.06 | 0.00 | 67 | 1013.5 |
| 20260507061537 | 46 | 207 | 2.0 | 5.0 | 0.00 | 0.06 | 0.00 | 67 | 1013.5 |
| 20260507060032 | 45 | 171 | 1.0 | 6.0 | 0.00 | 0.06 | 0.00 | 67 | 1013.6 |
| 20260507054533 | 45 | 171 | 1.0 | 7.0 | 0.00 | 0.06 | 0.00 | 67 | 1013.6 |
| 20260507053034 | 45 | 232 | 3.0 | 7.0 | 0.00 | 0.06 | 0.00 | 66 | 1013.7 |
| 20260507051532 | 45 | 200 | 2.0 | 5.0 | 0.00 | 0.06 | 0.00 | 67 | 1013.5 |
| 20260507050036 | 45 | 198 | 3.0 | 5.0 | 0.00 | 0.06 | 0.00 | 67 | 1013.5 |
| 20260507044531 | 45 | 167 | 1.0 | 5.0 | 0.00 | 0.06 | 0.00 | 66 | 1013.6 |
| 20260507043030 | 45 | 167 | 3.0 | 6.0 | 0.00 | 0.06 | 0.00 | 66 | 1013.8 |
| 20260507041534 | 46 | 173 | 1.0 | 5.0 | 0.00 | 0.06 | 0.00 | 66 | 1013.6 |
| 20260507040041 | 46 | 173 | 2.0 | 5.0 | 0.00 | 0.06 | 0.00 | 66 | 1013.7 |
| 20260507034540 | 46 | 173 | 1.0 | 5.0 | 0.00 | 0.06 | 0.00 | 66 | 1013.7 |
| 20260507033043 | 46 | 180 | 2.0 | 4.0 | 0.00 | 0.06 | 0.00 | 66 | 1013.9 |
| 20260507031545 | 46 | 194 | 1.0 | 4.0 | 0.00 | 0.06 | 0.00 | 66 | 1013.9 |
| 20260507030033 | 46 | 200 | 0.0 | 3.0 | 0.00 | 0.06 | 0.00 | 66 | 1013.8 |
| 20260507024534 | 46 | 200 | 1.0 | 3.0 | 0.00 | 0.07 | 0.00 | 65 | 1013.9 |
| 20260507023034 | 47 | 201 | 0.0 | 3.0 | 0.00 | 0.07 | 0.00 | 65 | 1014.0 |
| 20260507021533 | 47 | 201 | 1.0 | 4.0 | 0.00 | 0.07 | 0.00 | 65 | 1014.1 |
| 20260507020034 | 47 | 204 | 1.0 | 3.0 | 0.00 | 0.07 | 0.00 | 65 | 1014.1 |
| 20260507014541 | 47 | 205 | 1.0 | 3.0 | 0.00 | 0.07 | 0.00 | 65 | 1014.0 |
| 20260507013038 | 47 | 205 | 0.0 | 4.0 | 0.00 | 0.07 | 0.00 | 65 | 1014.2 |
| 20260507011536 | 47 | 205 | 1.0 | 4.0 | 0.00 | 0.07 | 0.00 | 64 | 1014.2 |
| 20260507010040 | 48 | 206 | 2.0 | 4.0 | 0.00 | 0.07 | 0.00 | 64 | 1014.4 |
| 20260507004532 | 48 | 211 | 1.0 | 4.0 | 0.00 | 0.07 | 0.00 | 64 | 1014.4 |